Flight Track Log - Related Links

Times and Time Zones

All times are in EDT time to prevent confusion due to time zone crossing. See the UPS1084 flight status page for this flight to view local times or setup timezone preferences in your user account.

Time Position Orientation Groundspeed Altitude Reporting Facility
EDT Latitude Longitude Course Direction KTS MPH feet Rate Location/Type
Fri 03:47:47 AM 38.1700 -85.7250 90° East 162 186 700  Level FlightAware ADS-B
Fri 03:48:12 AM 38.1520 -85.7190 165° South 154 177 2,100 2,291 Climbing FlightAware ADS-B
Fri 03:48:42 AM 38.1280 -85.7100 164° South 209 241 2,800 2,000 Climbing FlightAware ADS-B
Fri 03:49:12 AM 38.0980 -85.6990 164° South 227 261 4,100 2,291 Climbing FlightAware ADS-B
Fri 03:49:37 AM 38.0740 -85.6840 154° Southeast 233 268 4,900 1,950 Climbing FlightAware ADS-B
Fri 03:49:52 AM 38.0670 -85.6660 116° Southeast 254 292 5,400 2,160 Climbing FlightAware ADS-B
Fri 03:50:02 AM 38.0660 -85.6540 96° East 263 303 5,800 3,200 Climbing FlightAware ADS-B
Fri 03:50:22 AM 38.0750 -85.6210 71° East 275 316 7,000 3,200 Climbing FlightAware ADS-B
Fri 03:50:32 AM 38.0840 -85.6090 46° Northeast 284 327 7,400 3,000 Climbing FlightAware ADS-B
Fri 03:51:02 AM 38.1150 -85.5760 40° Northeast 290 334 9,000 2,914 Climbing FlightAware ADS-B
Fri 03:51:42 AM 38.1600 -85.5340 36° Northeast 315 362 10,800 2,329 Climbing FlightAware ADS-B
Fri 03:52:27 AM 38.2030 -85.4640 52° Northeast 365 420 12,300 2,753 Climbing FlightAware ADS-B
Fri 03:53:07 AM 38.2400 -85.3880 58° Northeast 386 444 14,700 3,600 Climbing FlightAware ADS-B
Fri 03:53:47 AM 38.2790 -85.3080 58° Northeast 404 465 17,100 3,459 Climbing FlightAware ADS-B
Fri 03:54:32 AM 38.3270 -85.2120 57° Northeast 423 487 19,600 3,176 Climbing FlightAware ADS-B
Fri 03:55:12 AM 38.3690 -85.1270 58° Northeast 435 501 21,600 2,925 Climbing FlightAware ADS-B
Fri 03:55:52 AM 38.4120 -85.0380 58° Northeast 447 514 23,500 2,625 Climbing FlightAware ADS-B
Fri 03:56:32 AM 38.4560 -84.9500 57° Northeast 458 527 25,100 2,471 Climbing FlightAware ADS-B
Fri 03:57:17 AM 38.5070 -84.8440 58° Northeast 472 543 27,000 1,765 Climbing FlightAware ADS-B
Fri 03:57:57 AM 38.5510 -84.7550 58° Northeast 476 548 27,600 2,160 Climbing FlightAware ADS-B
Fri 03:58:32 AM 38.5940 -84.6670 58° Northeast 491 565 29,700 1,400 Climbing FlightAware ADS-B
Fri 03:59:27 AM 38.6530 -84.5450 58° Northeast 491 565 29,700  Level FlightAware ADS-B
Fri 04:00:07 AM 38.6940 -84.4610 58° Northeast 491 565 29,700  Level FlightAware ADS-B
Fri 04:00:47 AM 38.7350 -84.3770 58° Northeast 491 565 29,700  Level FlightAware ADS-B
Fri 04:01:27 AM 38.7760 -84.2930 58° Northeast 491 565 29,700  Level FlightAware ADS-B
Fri 04:02:07 AM 38.8170 -84.2090 58° Northeast 491 565 29,700 4,171 Level FlightAware ADS-B
Fri 04:03:12 AM 38.9230 -83.9800 59° Northeast 492 566 37,000 4,171 Climbing FlightAware ADS-B
Fri 04:03:52 AM 38.9720 -83.8750 59° Northeast 491 565 37,000  Level FlightAware ADS-B
Fri 04:04:27 AM 39.0120 -83.7910 58° Northeast 489 563 37,000  Level FlightAware ADS-B
Fri 04:05:17 AM 39.0710 -83.6650 59° Northeast 487 560 37,000  Level FlightAware ADS-B
Fri 04:05:57 AM 39.1180 -83.5660 59° Northeast 486 559 37,000  Level FlightAware ADS-B
Fri 04:06:42 AM 39.1710 -83.4520 59° Northeast 484 557 37,000  Level FlightAware ADS-B
Fri 04:07:22 AM 39.2160 -83.3560 59° Northeast 484 557 37,000  Level FlightAware ADS-B
Fri 04:08:02 AM 39.2630 -83.2550 59° Northeast 484 557 37,000  Level FlightAware ADS-B
Fri 04:08:52 AM 39.3170 -83.1370 59° Northeast 483 556 37,000  Level FlightAware ADS-B
Fri 04:09:37 AM 39.3720 -83.0180 59° Northeast 484 557 37,000  Level FlightAware ADS-B
Fri 04:10:22 AM 39.4240 -82.9050 59° Northeast 484 557 37,000  Level FlightAware ADS-B
Fri 04:11:07 AM 39.4740 -82.7950 59° Northeast 486 559 37,000  Level FlightAware ADS-B
Fri 04:11:47 AM 39.5190 -82.6970 59° Northeast 485 558 37,000  Level FlightAware ADS-B
Fri 04:12:32 AM 39.5720 -82.5800 60° Northeast 486 559 37,000  Level FlightAware ADS-B
Fri 04:13:12 AM 39.6180 -82.4790 59° Northeast 486 559 37,000  Level FlightAware ADS-B
Fri 04:13:52 AM 39.6630 -82.3780 60° Northeast 484 557 37,000  Level FlightAware ADS-B
Fri 04:14:37 AM 39.7150 -82.2630 60° Northeast 484 557 37,000  Level FlightAware ADS-B
Fri 04:15:17 AM 39.7610 -82.1620 59° Northeast 483 556 37,000  Level FlightAware ADS-B
Fri 04:15:57 AM 39.8050 -82.0610 60° Northeast 482 555 37,000  Level FlightAware ADS-B
Fri 04:16:42 AM 39.8550 -81.9500 60° Northeast 481 554 37,000  Level FlightAware ADS-B
Fri 04:17:22 AM 39.8990 -81.8500 60° Northeast 478 550 37,000  Level FlightAware ADS-B
Fri 04:18:07 AM 39.9480 -81.7390 60° Northeast 477 549 37,000  Level FlightAware ADS-B
Fri 04:18:47 AM 39.9800 -81.6310 69° East 473 544 37,000  Level FlightAware ADS-B
Fri 04:19:27 AM 39.9980 -81.5160 78° East 472 543 37,000  Level FlightAware ADS-B
Fri 04:20:12 AM 40.0170 -81.3930 79° East 470 541 37,000  Level FlightAware ADS-B
Fri 04:20:52 AM 40.0340 -81.2810 79° East 469 540 37,000  Level FlightAware ADS-B
Fri 04:21:37 AM 40.0520 -81.1580 79° East 467 537 37,000  Level FlightAware ADS-B
Fri 04:22:17 AM 40.0690 -81.0440 79° East 466 536 37,000  Level FlightAware ADS-B
Fri 04:23:02 AM 40.0860 -80.9220 80° East 464 534 37,000  Level FlightAware ADS-B
Fri 04:23:42 AM 40.1020 -80.8110 79° East 462 532 37,000  Level FlightAware ADS-B
Fri 04:24:22 AM 40.1180 -80.7010 79° East 462 532 37,000  Level FlightAware ADS-B
Fri 04:25:07 AM 40.1350 -80.5800 80° East 462 532 37,000  Level FlightAware ADS-B
Fri 04:25:47 AM 40.1500 -80.4700 80° East 462 532 37,000  Level FlightAware ADS-B
Fri 04:26:32 AM 40.1680 -80.3450 79° East 461 531 37,000  Level FlightAware ADS-B
Fri 04:27:12 AM 40.1830 -80.2340 80° East 459 528 37,000  Level FlightAware ADS-B
Fri 04:27:52 AM 40.1980 -80.1250 80° East 460 529 37,000  Level FlightAware ADS-B
Fri 04:28:37 AM 40.2150 -80.0050 79° East 458 527 37,000  Level FlightAware ADS-B
Fri 04:29:17 AM 40.2300 -79.8920 80° East 457 526 37,000  Level FlightAware ADS-B
Fri 04:29:57 AM 40.2450 -79.7830 80° East 457 526 37,000  Level FlightAware ADS-B
Fri 04:30:42 AM 40.2610 -79.6590 80° East 456 525 37,000  Level FlightAware ADS-B
Fri 04:31:22 AM 40.2750 -79.5530 80° East 457 526 37,000  Level FlightAware ADS-B
Fri 04:33:17 AM 40.3140 -79.2550 80° East 458 527 37,000  Level FlightAware ADS-B
Fri 04:33:57 AM 40.3290 -79.1380 80° East 458 527 37,000  Level FlightAware ADS-B
Fri 04:34:42 AM 40.3460 -79.0060 80° East 459 528 37,000  Level FlightAware ADS-B
Fri 04:35:22 AM 40.3600 -78.8980 80° East 459 528 37,000  Level FlightAware ADS-B
Fri 04:36:02 AM 40.3740 -78.7860 81° East 461 531 37,000  Level FlightAware ADS-B
Fri 04:36:47 AM 40.3890 -78.6630 81° East 461 531 37,000  Level FlightAware ADS-B
Fri 04:37:27 AM 40.4030 -78.5520 81° East 461 531 37,000  Level FlightAware ADS-B
Fri 04:38:07 AM 40.4160 -78.4420 81° East 461 531 37,000  Level FlightAware ADS-B
Fri 04:38:52 AM 40.4310 -78.3180 81° East 462 532 37,000  Level FlightAware ADS-B
Fri 04:39:27 AM 40.4430 -78.2190 81° East 462 532 37,000  Level FlightAware ADS-B
Fri 04:40:02 AM 40.4556 -78.1167 81° East 463 533 37,000  Level FlightAware ADS-B
Fri 04:40:46 AM 40.4700 -77.9944 81° East 463 533 37,000  Level FlightAware ADS-B
Fri 04:41:17 AM 40.4802 -77.9087 81° East 463 533 37,000  Level FlightAware ADS-B
Fri 04:41:47 AM 40.4899 -77.8247 81° East 463 533 37,000  Level FlightAware ADS-B
Fri 04:42:17 AM 40.4997 -77.7405 81° East 463 533 37,000  Level FlightAware ADS-B
Fri 04:42:47 AM 40.5093 -77.6569 81° East 463 533 37,000  Level FlightAware ADS-B
Fri 04:43:17 AM 40.5188 -77.5734 81° East 463 533 37,000  Level FlightAware ADS-B
Fri 04:43:47 AM 40.5284 -77.4889 81° East 462 532 37,000  Level FlightAware ADS-B
Fri 04:44:18 AM 40.5379 -77.4045 82° East 462 532 37,000  Level FlightAware ADS-B
Fri 04:44:48 AM 40.5473 -77.3210 82° East 462 532 37,000  Level FlightAware ADS-B
Fri 04:45:18 AM 40.5568 -77.2356 82° East 461 531 37,000  Level FlightAware ADS-B
Fri 04:45:49 AM 40.5662 -77.1505 82° East 461 531 37,000 -590 Level FlightAware ADS-B
Fri 04:46:19 AM 40.5755 -77.0662 82° East 460 529 36,400 -2,000 Descending FlightAware ADS-B
Fri 04:46:49 AM 40.5846 -76.9826 82° East 462 532 35,000 -2,951 Descending FlightAware ADS-B
Fri 04:47:20 AM 40.5937 -76.8983 82° East 464 534 33,400 -2,852 Descending FlightAware ADS-B
Fri 04:47:50 AM 40.6030 -76.8133 82° East 462 532 32,100 -2,500 Descending FlightAware ADS-B
Fri 04:48:20 AM 40.6117 -76.7295 82° East 456 525 30,900 -2,262 Descending FlightAware ADS-B
Fri 04:48:51 AM 40.6205 -76.6472 82° East 449 517 29,800 -2,262 Descending FlightAware ADS-B
Fri 04:49:21 AM 40.6290 -76.5661 82° East 442 509 28,600 -2,400 Descending FlightAware ADS-B
Fri 04:49:51 AM 40.6374 -76.4860 82° East 437 503 27,400 -2,300 Descending FlightAware ADS-B
Fri 04:50:21 AM 40.6457 -76.4070 82° East 432 497 26,300 -2,200 Descending FlightAware ADS-B
Fri 04:50:51 AM 40.6538 -76.3288 82° East 425 489 25,200 -2,164 Descending FlightAware ADS-B
Fri 04:51:22 AM 40.6615 -76.2519 82° East 419 482 24,100 -2,226 Descending FlightAware ADS-B
Fri 04:51:53 AM 40.6695 -76.1732 82° East 416 479 22,900 -2,262 Descending FlightAware ADS-B
Fri 04:52:23 AM 40.6772 -76.0979 82° East 409 471 21,800 -2,200 Descending FlightAware ADS-B
Fri 04:52:53 AM 40.6847 -76.0241 82° East 401 461 20,700 -2,066 Descending FlightAware ADS-B
Fri 04:53:24 AM 40.6919 -75.9511 83° East 393 452 19,700 -2,032 Descending FlightAware ADS-B
Fri 04:53:55 AM 40.6991 -75.8772 83° East 384 442 18,600 -2,226 Descending FlightAware ADS-B
Fri 04:54:26 AM 40.7062 -75.8057 83° East 379 436 17,400 -2,361 Descending FlightAware ADS-B
Fri 04:54:56 AM 40.7129 -75.7387 82° East 358 412 16,200 -2,361 Descending FlightAware ADS-B
Fri 04:55:27 AM 40.7192 -75.6726 83° East 356 410 15,000 -2,066 Descending FlightAware ADS-B
Fri 04:55:57 AM 40.7254 -75.6081 83° East 351 404 14,100 -1,900 Descending FlightAware ADS-B
Fri 04:56:27 AM 40.7316 -75.5449 83° East 346 398 13,100 -1,900 Descending FlightAware ADS-B
Fri 04:56:57 AM 40.7375 -75.4824 83° East 341 392 12,200 -1,821 Descending FlightAware ADS-B
Fri 04:57:23 AM 40.7425 -75.4296 83° East 333 383 11,400 -1,929 Descending FlightAware ADS-B
Fri 04:57:53 AM 40.7483 -75.3685 83° East 325 374 10,400 -1,615 Descending FlightAware ADS-B
Fri 04:58:15 AM 40.7521 -75.3265 83° East 315 362 10,000 -1,111 Descending FlightAware ADS-B
Fri 04:58:20 AM 40.7526 -75.3161 86° East 312 359 9,900 -857 Descending FlightAware ADS-B
Fri 04:58:29 AM 40.7523 -75.2995 91° East 308 354 9,800 -923 Descending FlightAware ADS-B
Fri 04:58:33 AM 40.7518 -75.2920 95° East 306 352 9,700 -429 Descending FlightAware ADS-B
Fri 04:58:43 AM 40.7497 -75.2735 99° East 298 343 9,700  Level FlightAware ADS-B
Fri 04:58:48 AM 40.7482 -75.2646 103° East 293 337 9,700  Level FlightAware ADS-B
Fri 04:58:56 AM 40.7456 -75.2518 105° East 285 328 9,700  Level FlightAware ADS-B
Fri 04:59:12 AM 40.7399 -75.2265 107° East 269 310 9,700 -194 Level FlightAware ADS-B
Fri 04:59:27 AM 40.7348 -75.2030 106° East 259 298 9,600 -400 Descending FlightAware ADS-B
Fri 04:59:42 AM 40.7297 -75.1803 107° East 258 297 9,500 -600 Descending FlightAware ADS-B
Fri 04:59:57 AM 40.7245 -75.1575 107° East 258 297 9,300 -600 Descending FlightAware ADS-B
Fri 05:00:12 AM 40.7191 -75.1340 107° East 258 297 9,200 -333 Descending FlightAware ADS-B
Fri 05:00:15 AM 40.7180 -75.1296 108° East 258 297 9,200 -500 Level FlightAware ADS-B
Fri 05:00:24 AM 40.7148 -75.1160 107° East 257 296 9,100 -960 Descending FlightAware ADS-B
Fri 05:00:40 AM 40.7094 -75.0932 107° East 258 297 8,800 -1,071 Descending FlightAware ADS-B
Fri 05:00:52 AM 40.7049 -75.0739 107° East 260 299 8,600 -462 Descending FlightAware ADS-B
Fri 05:01:06 AM 40.7000 -75.0530 107° East 264 304 8,600  Level FlightAware ADS-B
Fri 05:01:07 AM 40.6996 -75.0512 106° East 262 302 8,600  Level FlightAware ADS-B
Fri 05:01:21 AM 40.6945 -75.0294 107° East 267 307 8,600  Level FlightAware ADS-B
Fri 05:01:36 AM 40.6890 -75.0061 107° East 264 304 8,600 -581 Level FlightAware ADS-B
Fri 05:01:52 AM 40.6832 -74.9817 107° East 261 300 8,300 -1,355 Descending FlightAware ADS-B
Fri 05:02:07 AM 40.6778 -74.9585 107° East 262 302 7,900 -1,655 Descending FlightAware ADS-B
Fri 05:02:21 AM 40.6728 -74.9372 107° East 266 306 7,500 -1,714 Descending FlightAware ADS-B
Fri 05:02:35 AM 40.6677 -74.9149 107° East 271 312 7,100 -1,600 Descending FlightAware ADS-B
Fri 05:02:51 AM 40.6620 -74.8907 107° East 273 314 6,700 -1,548 Descending FlightAware ADS-B
Fri 05:03:06 AM 40.6562 -74.8665 108° East 274 315 6,300 -1,400 Descending FlightAware ADS-B
Fri 05:03:21 AM 40.6505 -74.8424 107° East 271 312 6,000 -1,333 Descending FlightAware ADS-B
Fri 05:03:33 AM 40.6460 -74.8234 107° East 269 310 5,700 -1,241 Descending FlightAware ADS-B
Fri 05:03:50 AM 40.6396 -74.7963 107° East 267 307 5,400 -1,091 Descending FlightAware ADS-B
Fri 05:04:06 AM 40.6340 -74.7725 107° East 263 303 5,100 -968 Descending FlightAware ADS-B
Fri 05:04:21 AM 40.6286 -74.7497 107° East 258 297 4,900 -828 Descending FlightAware ADS-B
Fri 05:04:35 AM 40.6237 -74.7289 107° East 253 291 4,700 -1,000 Descending FlightAware ADS-B
Fri 05:04:51 AM 40.6183 -74.7058 107° East 246 283 4,400 -968 Descending FlightAware ADS-B
Fri 05:05:06 AM 40.6131 -74.6842 108° East 243 280 4,200 -968 Descending FlightAware ADS-B
Fri 05:05:22 AM 40.6079 -74.6618 107° East 240 276 3,900 -1,059 Descending FlightAware ADS-B
Fri 05:05:40 AM 40.6018 -74.6361 107° East 240 276 3,600 -439 Descending FlightAware ADS-B
Fri 05:06:03 AM 40.5940 -74.6038 108° East 240 276 3,600  Level FlightAware ADS-B
Fri 05:06:22 AM 40.5878 -74.5773 107° East 242 278 3,600  Level FlightAware ADS-B
Fri 05:06:36 AM 40.5832 -74.5583 108° East 241 277 3,600  Level FlightAware ADS-B
Fri 05:06:51 AM 40.5780 -74.5364 107° East 239 275 3,600  Level FlightAware ADS-B
Fri 05:07:07 AM 40.5729 -74.5154 108° East 238 274 3,600 -387 Level FlightAware ADS-B
Fri 05:07:22 AM 40.5679 -74.4948 108° East 233 268 3,400 -1,500 Descending FlightAware ADS-B
Fri 05:07:39 AM 40.5624 -74.4714 107° East 233 268 2,800 -2,000 Descending FlightAware ADS-B
Fri 05:07:52 AM 40.5583 -74.4539 107° East 232 267 2,400 -1,500 Descending FlightAware ADS-B
Fri 05:07:59 AM 40.5559 -74.4443 108° East 228 262 2,300 -947 Descending FlightAware ADS-B
Fri 05:08:11 AM 40.5521 -74.4289 108° East 216 249 2,100 -960 Descending FlightAware ADS-B
Fri 05:08:24 AM 40.5484 -74.4133 107° East 215 247 1,900 -1,200 Descending FlightAware ADS-B
Fri 05:08:26 AM 40.5477 -74.4107 110° East 203 234 1,800 -1,200 Descending FlightAware ADS-B
Fri 05:08:34 AM 40.5456 -74.4015 107° East 200 230 1,700 -545 Descending FlightAware ADS-B
Fri 05:08:37 AM 40.5450 -74.3975 101° East 197 227 1,700 -857 Level FlightAware ADS-B
Fri 05:08:41 AM 40.5446 -74.3929 97° East 196 226 1,600 -1,200 Descending FlightAware ADS-B
Fri 05:08:42 AM 40.5446 -74.3922 90° East 203 234 1,600 -375 Level FlightAware ADS-B
Fri 05:08:57 AM 40.5451 -74.3743 88° East 185 213 1,500 -375 Descending FlightAware ADS-B
Fri 05:08:58 AM 40.5451 -74.3736 90° East 192 221 1,500 375 Level FlightAware ADS-B
Fri 05:09:13 AM 40.5456 -74.3572 88° East 170 196 1,600 194 Climbing FlightAware ADS-B
Fri 05:09:29 AM 40.5461 -74.3411 88° East 168 193 1,600  Level FlightAware ADS-B
Fri 05:09:46 AM 40.5465 -74.3228 88° East 169 194 1,600  Level FlightAware ADS-B
Fri 05:10:02 AM 40.5519 -74.3069 66° East 169 194 1,600 -188 Level FlightAware ADS-B
Fri 05:10:18 AM 40.5473 -74.2893 109° East 168 193 1,500  Descending FlightAware ADS-B
Fri 05:10:28 AM 40.5479 -74.2787 86° East 161 185 1,600 353 Climbing FlightAware ADS-B
Fri 05:10:35 AM 40.5494 -74.2733 70° East 159 183 1,600  Level FlightAware ADS-B
Fri 05:10:41 AM 40.5517 -74.2680 60° Northeast 157 181 1,600  Level FlightAware ADS-B
Fri 05:10:44 AM 40.5531 -74.2651 58° Northeast 158 182 1,600  Level FlightAware ADS-B
Fri 05:10:59 AM 40.5593 -74.2530 56° Northeast 160 184 1,600  Level FlightAware ADS-B
Fri 05:11:03 AM 40.5607 -74.2509 49° Northeast 160 184 1,600  Level FlightAware ADS-B
Fri 05:11:08 AM 40.5634 -74.2478 41° Northeast 162 186 1,600  Level FlightAware ADS-B
Fri 05:11:12 AM 40.5658 -74.2456 35° Northeast 164 189 1,600  Level FlightAware ADS-B
Fri 05:11:28 AM 40.5768 -74.2381 27° Northeast 167 192 1,600 -207 Level FlightAware ADS-B
Fri 05:11:41 AM 40.5863 -74.2322 25° Northeast 162 186 1,500 -273 Descending FlightAware ADS-B
Fri 05:11:50 AM 40.5924 -74.2283 26° Northeast 161 185 1,500 -240 Level FlightAware ADS-B
Fri 05:12:06 AM 40.6028 -74.2216 26° Northeast 161 185 1,400 -727 Descending FlightAware ADS-B
Fri 05:12:23 AM 40.6138 -74.2148 25° Northeast 146 168 1,100 -909 Descending FlightAware ADS-B
Fri 05:12:39 AM 40.6230 -74.2090 26° Northeast 128 147 900 -750 Descending FlightAware ADS-B
Fri 05:12:55 AM 40.6309 -74.2039 26° Northeast 123 142 700 -774 Descending FlightAware ADS-B
Fri 05:13:10 AM 40.6390 -74.1987 26° Northeast 124 143 500 -706 Descending FlightAware ADS-B
Fri 05:13:29 AM 40.6494 -74.1922 25° Northeast 129 148 300 -667 Descending FlightAware ADS-B
Fri 05:13:46 AM 40.6581 -74.1867 26° Northeast 126 145 100 -706 Descending FlightAware ADS-B

Login

Don't have an account? Register now (free) for customized features, flight alerts, and more!